sensor_id;sensor_type;location;lat;lon;timestamp;temperature;humidity
71128;SHT30;59249;59.736;30.568;2022-07-23T00:01:32;20.54;75.83
71128;SHT30;59249;59.736;30.568;2022-07-23T00:04:03;20.52;75.90
71128;SHT30;59249;59.736;30.568;2022-07-23T00:06:32;20.49;75.81
71128;SHT30;59249;59.736;30.568;2022-07-23T00:09:00;20.43;76.45
71128;SHT30;59249;59.736;30.568;2022-07-23T00:11:30;20.42;76.60
71128;SHT30;59249;59.736;30.568;2022-07-23T00:14:02;20.39;76.74
71128;SHT30;59249;59.736;30.568;2022-07-23T00:16:31;20.32;76.73
71128;SHT30;59249;59.736;30.568;2022-07-23T00:19:01;20.28;76.97
71128;SHT30;59249;59.736;30.568;2022-07-23T00:21:31;20.22;77.25
71128;SHT30;59249;59.736;30.568;2022-07-23T00:24:00;20.17;77.39
71128;SHT30;59249;59.736;30.568;2022-07-23T00:26:29;20.17;77.63
71128;SHT30;59249;59.736;30.568;2022-07-23T00:28:57;20.10;77.61
71128;SHT30;59249;59.736;30.568;2022-07-23T00:31:30;20.09;77.53
71128;SHT30;59249;59.736;30.568;2022-07-23T00:33:59;20.03;77.69
71128;SHT30;59249;59.736;30.568;2022-07-23T00:36:30;20.01;77.84
71128;SHT30;59249;59.736;30.568;2022-07-23T00:38:59;20.01;78.08
71128;SHT30;59249;59.736;30.568;2022-07-23T00:41:29;19.98;77.94
71128;SHT30;59249;59.736;30.568;2022-07-23T00:44:19;19.92;78.50
71128;SHT30;59249;59.736;30.568;2022-07-23T00:46:52;19.89;78.40
71128;SHT30;59249;59.736;30.568;2022-07-23T00:49:24;19.89;78.30
71128;SHT30;59249;59.736;30.568;2022-07-23T00:51:55;19.87;78.42
71128;SHT30;59249;59.736;30.568;2022-07-23T00:54:27;19.81;78.65
71128;SHT30;59249;59.736;30.568;2022-07-23T00:56:56;19.82;78.72
71128;SHT30;59249;59.736;30.568;2022-07-23T00:59:25;19.76;78.76
71128;SHT30;59249;59.736;30.568;2022-07-23T01:01:54;19.73;78.87
71128;SHT30;59249;59.736;30.568;2022-07-23T01:04:23;19.75;78.85
71128;SHT30;59249;59.736;30.568;2022-07-23T01:06:53;19.68;78.95
71128;SHT30;59249;59.736;30.568;2022-07-23T01:09:22;19.61;79.22
71128;SHT30;59249;59.736;30.568;2022-07-23T01:11:52;19.63;79.34
71128;SHT30;59249;59.736;30.568;2022-07-23T01:14:22;19.56;79.27
71128;SHT30;59249;59.736;30.568;2022-07-23T01:16:53;19.59;79.11
71128;SHT30;59249;59.736;30.568;2022-07-23T01:19:22;19.57;79.09
71128;SHT30;59249;59.736;30.568;2022-07-23T01:21:54;19.60;79.55
71128;SHT30;59249;59.736;30.568;2022-07-23T01:24:26;19.61;79.30
71128;SHT30;59249;59.736;30.568;2022-07-23T01:27:00;19.58;79.41
71128;SHT30;59249;59.736;30.568;2022-07-23T01:29:29;19.59;79.36
71128;SHT30;59249;59.736;30.568;2022-07-23T01:32:01;19.59;79.24
71128;SHT30;59249;59.736;30.568;2022-07-23T01:34:30;19.61;79.35
71128;SHT30;59249;59.736;30.568;2022-07-23T01:37:00;19.61;79.36
71128;SHT30;59249;59.736;30.568;2022-07-23T01:39:31;19.68;79.30
71128;SHT30;59249;59.736;30.568;2022-07-23T01:42:01;19.71;79.46
71128;SHT30;59249;59.736;30.568;2022-07-23T01:44:35;19.78;79.27
71128;SHT30;59249;59.736;30.568;2022-07-23T01:47:05;19.80;79.06
71128;SHT30;59249;59.736;30.568;2022-07-23T01:49:34;19.80;79.29
71128;SHT30;59249;59.736;30.568;2022-07-23T01:52:37;19.75;79.17
71128;SHT30;59249;59.736;30.568;2022-07-23T01:55:09;19.77;79.31
71128;SHT30;59249;59.736;30.568;2022-07-23T01:57:47;19.78;79.29
71128;SHT30;59249;59.736;30.568;2022-07-23T02:00:20;19.81;79.27
71128;SHT30;59249;59.736;30.568;2022-07-23T02:02:51;19.83;79.08
71128;SHT30;59249;59.736;30.568;2022-07-23T02:05:20;19.84;78.96
71128;SHT30;59249;59.736;30.568;2022-07-23T02:07:49;19.97;79.12
71128;SHT30;59249;59.736;30.568;2022-07-23T02:10:19;20.13;78.98
71128;SHT30;59249;59.736;30.568;2022-07-23T02:12:48;20.27;78.76
71128;SHT30;59249;59.736;30.568;2022-07-23T02:15:17;20.48;78.49
71128;SHT30;59249;59.736;30.568;2022-07-23T02:17:46;20.53;77.77
71128;SHT30;59249;59.736;30.568;2022-07-23T02:20:15;20.64;77.69
71128;SHT30;59249;59.736;30.568;2022-07-23T02:22:44;20.78;77.35
71128;SHT30;59249;59.736;30.568;2022-07-23T02:25:13;20.87;77.20
71128;SHT30;59249;59.736;30.568;2022-07-23T02:27:44;20.96;77.02
71128;SHT30;59249;59.736;30.568;2022-07-23T02:30:13;21.04;76.84
71128;SHT30;59249;59.736;30.568;2022-07-23T02:32:42;21.21;76.50
71128;SHT30;59249;59.736;30.568;2022-07-23T02:35:11;21.37;76.19
71128;SHT30;59249;59.736;30.568;2022-07-23T02:37:41;21.61;75.74
71128;SHT30;59249;59.736;30.568;2022-07-23T02:40:11;21.79;75.32
71128;SHT30;59249;59.736;30.568;2022-07-23T02:42:43;21.87;74.64
71128;SHT30;59249;59.736;30.568;2022-07-23T02:45:13;21.89;74.42
71128;SHT30;59249;59.736;30.568;2022-07-23T02:47:42;21.96;74.23
71128;SHT30;59249;59.736;30.568;2022-07-23T02:50:11;22.10;73.98
71128;SHT30;59249;59.736;30.568;2022-07-23T02:52:40;22.19;73.66
71128;SHT30;59249;59.736;30.568;2022-07-23T02:55:09;22.19;73.65
71128;SHT30;59249;59.736;30.568;2022-07-23T02:57:38;22.31;73.11
71128;SHT30;59249;59.736;30.568;2022-07-23T03:00:10;22.40;73.01
71128;SHT30;59249;59.736;30.568;2022-07-23T03:02:39;22.62;72.64
71128;SHT30;59249;59.736;30.568;2022-07-23T03:05:08;22.71;72.20
71128;SHT30;59249;59.736;30.568;2022-07-23T03:07:38;22.77;71.95
71128;SHT30;59249;59.736;30.568;2022-07-23T03:10:08;22.90;71.63
71128;SHT30;59249;59.736;30.568;2022-07-23T03:12:37;22.91;71.33
71128;SHT30;59249;59.736;30.568;2022-07-23T03:15:09;23.01;71.13
71128;SHT30;59249;59.736;30.568;2022-07-23T03:17:38;23.05;71.04
71128;SHT30;59249;59.736;30.568;2022-07-23T03:20:09;23.09;70.93
71128;SHT30;59249;59.736;30.568;2022-07-23T03:22:38;23.20;70.54
71128;SHT30;59249;59.736;30.568;2022-07-23T03:25:09;23.19;70.59
71128;SHT30;59249;59.736;30.568;2022-07-23T03:27:44;23.22;69.97
71128;SHT30;59249;59.736;30.568;2022-07-23T03:30:14;23.22;69.79
71128;SHT30;59249;59.736;30.568;2022-07-23T03:32:44;23.01;70.53
71128;SHT30;59249;59.736;30.568;2022-07-23T03:35:13;22.92;70.72
71128;SHT30;59249;59.736;30.568;2022-07-23T03:37:51;22.73;71.56
71128;SHT30;59249;59.736;30.568;2022-07-23T03:40:20;22.61;71.71
71128;SHT30;59249;59.736;30.568;2022-07-23T03:42:49;22.50;72.12
71128;SHT30;59249;59.736;30.568;2022-07-23T03:45:20;22.37;72.53
71128;SHT30;59249;59.736;30.568;2022-07-23T03:47:55;22.35;72.67
71128;SHT30;59249;59.736;30.568;2022-07-23T03:50:24;22.42;72.52
71128;SHT30;59249;59.736;30.568;2022-07-23T03:52:53;22.39;72.90
71128;SHT30;59249;59.736;30.568;2022-07-23T03:55:22;22.43;72.80
71128;SHT30;59249;59.736;30.568;2022-07-23T03:57:51;22.49;72.82
71128;SHT30;59249;59.736;30.568;2022-07-23T04:00:22;22.50;72.76
71128;SHT30;59249;59.736;30.568;2022-07-23T04:02:51;22.43;72.97
71128;SHT30;59249;59.736;30.568;2022-07-23T04:05:20;22.54;72.91
71128;SHT30;59249;59.736;30.568;2022-07-23T04:07:52;22.50;73.05
71128;SHT30;59249;59.736;30.568;2022-07-23T04:10:21;22.50;73.13
71128;SHT30;59249;59.736;30.568;2022-07-23T04:12:50;22.52;73.20
71128;SHT30;59249;59.736;30.568;2022-07-23T04:15:20;22.58;73.00
71128;SHT30;59249;59.736;30.568;2022-07-23T04:17:49;22.62;72.98
71128;SHT30;59249;59.736;30.568;2022-07-23T04:20:19;22.64;72.95
71128;SHT30;59249;59.736;30.568;2022-07-23T04:22:54;22.70;72.63
71128;SHT30;59249;59.736;30.568;2022-07-23T04:25:24;22.70;72.64
71128;SHT30;59249;59.736;30.568;2022-07-23T04:27:52;22.68;72.41
71128;SHT30;59249;59.736;30.568;2022-07-23T04:30:24;22.75;72.72
71128;SHT30;59249;59.736;30.568;2022-07-23T04:32:54;22.75;72.57
71128;SHT30;59249;59.736;30.568;2022-07-23T04:35:27;22.85;72.43
71128;SHT30;59249;59.736;30.568;2022-07-23T04:38:04;22.88;72.57
71128;SHT30;59249;59.736;30.568;2022-07-23T04:40:35;22.94;72.32
71128;SHT30;59249;59.736;30.568;2022-07-23T04:43:03;23.01;72.15
71128;SHT30;59249;59.736;30.568;2022-07-23T04:45:39;23.04;71.99
71128;SHT30;59249;59.736;30.568;2022-07-23T04:48:10;23.15;71.76
71128;SHT30;59249;59.736;30.568;2022-07-23T04:50:40;23.21;71.71
71128;SHT30;59249;59.736;30.568;2022-07-23T04:53:25;23.18;71.56
71128;SHT30;59249;59.736;30.568;2022-07-23T04:55:57;23.25;71.03
71128;SHT30;59249;59.736;30.568;2022-07-23T04:58:26;23.29;71.18
71128;SHT30;59249;59.736;30.568;2022-07-23T05:00:56;23.34;71.22
71128;SHT30;59249;59.736;30.568;2022-07-23T05:03:28;23.37;71.37
71128;SHT30;59249;59.736;30.568;2022-07-23T05:05:57;23.53;71.19
71128;SHT30;59249;59.736;30.568;2022-07-23T05:08:27;23.61;70.95
71128;SHT30;59249;59.736;30.568;2022-07-23T05:10:59;23.65;70.71
71128;SHT30;59249;59.736;30.568;2022-07-23T05:13:32;23.74;70.39
71128;SHT30;59249;59.736;30.568;2022-07-23T05:16:33;23.82;70.21
71128;SHT30;59249;59.736;30.568;2022-07-23T05:19:10;23.85;70.07
71128;SHT30;59249;59.736;30.568;2022-07-23T05:21:40;23.96;69.70
71128;SHT30;59249;59.736;30.568;2022-07-23T05:24:09;24.05;69.69
71128;SHT30;59249;59.736;30.568;2022-07-23T05:26:37;24.14;69.52
71128;SHT30;59249;59.736;30.568;2022-07-23T05:29:07;24.20;69.31
71128;SHT30;59249;59.736;30.568;2022-07-23T05:31:37;24.30;69.22
71128;SHT30;59249;59.736;30.568;2022-07-23T05:34:06;24.32;69.00
71128;SHT30;59249;59.736;30.568;2022-07-23T05:36:39;24.39;68.22
71128;SHT30;59249;59.736;30.568;2022-07-23T05:39:10;24.36;68.11
71128;SHT30;59249;59.736;30.568;2022-07-23T05:41:39;24.47;68.13
71128;SHT30;59249;59.736;30.568;2022-07-23T05:44:09;24.43;68.25
71128;SHT30;59249;59.736;30.568;2022-07-23T05:46:41;24.54;68.07
71128;SHT30;59249;59.736;30.568;2022-07-23T05:49:19;24.61;67.23
71128;SHT30;59249;59.736;30.568;2022-07-23T05:52:17;24.71;66.94
71128;SHT30;59249;59.736;30.568;2022-07-23T05:55:11;24.82;66.91
71128;SHT30;59249;59.736;30.568;2022-07-23T05:57:41;24.90;66.96
71128;SHT30;59249;59.736;30.568;2022-07-23T06:00:16;25.01;66.72
71128;SHT30;59249;59.736;30.568;2022-07-23T06:02:51;25.10;66.21
71128;SHT30;59249;59.736;30.568;2022-07-23T06:05:23;25.14;65.96
71128;SHT30;59249;59.736;30.568;2022-07-23T06:07:55;25.16;66.05
71128;SHT30;59249;59.736;30.568;2022-07-23T06:10:25;25.24;66.07
71128;SHT30;59249;59.736;30.568;2022-07-23T06:12:54;25.43;65.68
71128;SHT30;59249;59.736;30.568;2022-07-23T06:15:29;25.48;65.33
71128;SHT30;59249;59.736;30.568;2022-07-23T06:17:59;25.60;64.91
71128;SHT30;59249;59.736;30.568;2022-07-23T06:20:28;25.65;64.92
71128;SHT30;59249;59.736;30.568;2022-07-23T06:22:58;25.69;64.58
71128;SHT30;59249;59.736;30.568;2022-07-23T06:25:28;25.88;64.59
71128;SHT30;59249;59.736;30.568;2022-07-23T06:27:57;25.96;64.26
71128;SHT30;59249;59.736;30.568;2022-07-23T06:30:27;26.14;63.92
71128;SHT30;59249;59.736;30.568;2022-07-23T06:32:55;26.16;63.66
71128;SHT30;59249;59.736;30.568;2022-07-23T06:35:26;26.25;63.60
71128;SHT30;59249;59.736;30.568;2022-07-23T06:37:55;26.33;63.13
71128;SHT30;59249;59.736;30.568;2022-07-23T06:40:24;26.29;62.60
71128;SHT30;59249;59.736;30.568;2022-07-23T06:42:52;26.39;62.82
71128;SHT30;59249;59.736;30.568;2022-07-23T06:45:23;26.44;62.36
71128;SHT30;59249;59.736;30.568;2022-07-23T06:47:52;26.48;61.85
71128;SHT30;59249;59.736;30.568;2022-07-23T06:50:21;26.53;61.83
71128;SHT30;59249;59.736;30.568;2022-07-23T06:52:51;26.64;61.92
71128;SHT30;59249;59.736;30.568;2022-07-23T06:55:20;26.72;61.13
71128;SHT30;59249;59.736;30.568;2022-07-23T06:57:49;26.77;60.80
71128;SHT30;59249;59.736;30.568;2022-07-23T07:00:22;26.83;60.41
71128;SHT30;59249;59.736;30.568;2022-07-23T07:02:50;26.86;60.10
71128;SHT30;59249;59.736;30.568;2022-07-23T07:05:22;26.92;60.26
71128;SHT30;59249;59.736;30.568;2022-07-23T07:07:54;27.00;60.37
71128;SHT30;59249;59.736;30.568;2022-07-23T07:10:23;27.09;60.19
71128;SHT30;59249;59.736;30.568;2022-07-23T07:12:52;27.15;60.27
71128;SHT30;59249;59.736;30.568;2022-07-23T07:15:22;27.16;59.76
71128;SHT30;59249;59.736;30.568;2022-07-23T07:17:51;27.25;59.81
71128;SHT30;59249;59.736;30.568;2022-07-23T07:20:20;27.35;59.32
71128;SHT30;59249;59.736;30.568;2022-07-23T07:22:49;27.37;58.90
71128;SHT30;59249;59.736;30.568;2022-07-23T07:25:19;27.43;58.76
71128;SHT30;59249;59.736;30.568;2022-07-23T07:27:48;27.59;58.96
71128;SHT30;59249;59.736;30.568;2022-07-23T07:30:17;27.69;58.56
71128;SHT30;59249;59.736;30.568;2022-07-23T07:32:46;27.80;58.26
71128;SHT30;59249;59.736;30.568;2022-07-23T07:35:25;27.86;57.91
71128;SHT30;59249;59.736;30.568;2022-07-23T07:37:57;27.91;57.80
71128;SHT30;59249;59.736;30.568;2022-07-23T07:40:27;27.96;57.15
71128;SHT30;59249;59.736;30.568;2022-07-23T07:43:00;27.95;56.79
71128;SHT30;59249;59.736;30.568;2022-07-23T07:45:33;27.92;56.73
71128;SHT30;59249;59.736;30.568;2022-07-23T07:48:02;28.03;56.68
71128;SHT30;59249;59.736;30.568;2022-07-23T07:50:32;28.03;56.18
71128;SHT30;59249;59.736;30.568;2022-07-23T07:53:01;28.02;56.08
71128;SHT30;59249;59.736;30.568;2022-07-23T07:55:31;28.00;56.27
71128;SHT30;59249;59.736;30.568;2022-07-23T07:58:00;28.02;55.97
71128;SHT30;59249;59.736;30.568;2022-07-23T08:00:30;28.09;56.20
71128;SHT30;59249;59.736;30.568;2022-07-23T08:03:00;28.10;56.02
71128;SHT30;59249;59.736;30.568;2022-07-23T08:05:30;28.25;56.36
71128;SHT30;59249;59.736;30.568;2022-07-23T08:08:00;28.34;55.77
71128;SHT30;59249;59.736;30.568;2022-07-23T08:10:34;28.34;55.66
71128;SHT30;59249;59.736;30.568;2022-07-23T08:13:04;28.36;55.03
71128;SHT30;59249;59.736;30.568;2022-07-23T08:15:33;28.48;55.27
71128;SHT30;59249;59.736;30.568;2022-07-23T08:18:01;28.52;55.73
71128;SHT30;59249;59.736;30.568;2022-07-23T08:20:31;28.67;55.15
71128;SHT30;59249;59.736;30.568;2022-07-23T08:23:05;28.78;54.94
71128;SHT30;59249;59.736;30.568;2022-07-23T08:25:39;28.83;54.89
71128;SHT30;59249;59.736;30.568;2022-07-23T08:28:10;28.88;55.00
71128;SHT30;59249;59.736;30.568;2022-07-23T08:30:42;28.95;55.20
71128;SHT30;59249;59.736;30.568;2022-07-23T08:33:12;28.95;54.55
71128;SHT30;59249;59.736;30.568;2022-07-23T08:35:58;29.04;54.63
71128;SHT30;59249;59.736;30.568;2022-07-23T08:38:28;29.03;54.62
71128;SHT30;59249;59.736;30.568;2022-07-23T08:40:59;29.07;54.06
71128;SHT30;59249;59.736;30.568;2022-07-23T08:43:30;29.07;54.01
71128;SHT30;59249;59.736;30.568;2022-07-23T08:46:02;29.02;54.05
71128;SHT30;59249;59.736;30.568;2022-07-23T08:48:33;29.02;53.59
71128;SHT30;59249;59.736;30.568;2022-07-23T08:51:07;29.05;53.97
71128;SHT30;59249;59.736;30.568;2022-07-23T08:53:38;29.23;53.85
71128;SHT30;59249;59.736;30.568;2022-07-23T08:56:12;29.29;53.58
71128;SHT30;59249;59.736;30.568;2022-07-23T08:58:44;29.33;53.82
71128;SHT30;59249;59.736;30.568;2022-07-23T09:01:14;29.39;53.33
71128;SHT30;59249;59.736;30.568;2022-07-23T09:03:43;29.44;52.21
71128;SHT30;59249;59.736;30.568;2022-07-23T09:06:12;29.51;52.46
71128;SHT30;59249;59.736;30.568;2022-07-23T09:08:44;29.59;51.84
71128;SHT30;59249;59.736;30.568;2022-07-23T09:11:17;29.66;51.11
71128;SHT30;59249;59.736;30.568;2022-07-23T09:13:48;29.81;50.86
71128;SHT30;59249;59.736;30.568;2022-07-23T09:16:25;29.88;51.03
71128;SHT30;59249;59.736;30.568;2022-07-23T09:18:59;29.93;51.30
71128;SHT30;59249;59.736;30.568;2022-07-23T09:21:30;29.89;51.03
71128;SHT30;59249;59.736;30.568;2022-07-23T09:24:02;29.72;50.61
71128;SHT30;59249;59.736;30.568;2022-07-23T09:26:36;29.63;50.56
71128;SHT30;59249;59.736;30.568;2022-07-23T09:29:09;29.60;51.36
71128;SHT30;59249;59.736;30.568;2022-07-23T09:32:00;29.66;50.80
71128;SHT30;59249;59.736;30.568;2022-07-23T09:34:30;29.63;50.29
71128;SHT30;59249;59.736;30.568;2022-07-23T09:37:12;29.65;50.62
71128;SHT30;59249;59.736;30.568;2022-07-23T09:39:42;29.60;50.92
71128;SHT30;59249;59.736;30.568;2022-07-23T09:42:19;29.51;51.62
71128;SHT30;59249;59.736;30.568;2022-07-23T09:44:51;29.73;51.37
71128;SHT30;59249;59.736;30.568;2022-07-23T09:47:21;29.95;51.01
71128;SHT30;59249;59.736;30.568;2022-07-23T09:50:03;30.00;50.74
71128;SHT30;59249;59.736;30.568;2022-07-23T09:52:35;30.00;50.40
71128;SHT30;59249;59.736;30.568;2022-07-23T09:55:06;29.94;50.36
71128;SHT30;59249;59.736;30.568;2022-07-23T09:57:36;30.09;50.37
71128;SHT30;59249;59.736;30.568;2022-07-23T10:00:14;30.18;49.34
71128;SHT30;59249;59.736;30.568;2022-07-23T10:02:46;30.30;49.37
71128;SHT30;59249;59.736;30.568;2022-07-23T10:05:30;30.48;49.44
71128;SHT30;59249;59.736;30.568;2022-07-23T10:08:18;30.45;48.58
71128;SHT30;59249;59.736;30.568;2022-07-23T10:11:09;30.39;48.29
71128;SHT30;59249;59.736;30.568;2022-07-23T10:14:05;30.47;48.90
71128;SHT30;59249;59.736;30.568;2022-07-23T10:16:49;30.31;48.97
71128;SHT30;59249;59.736;30.568;2022-07-23T10:19:19;30.40;49.42
71128;SHT30;59249;59.736;30.568;2022-07-23T10:21:53;30.49;49.14
71128;SHT30;59249;59.736;30.568;2022-07-23T10:24:40;30.56;49.58
71128;SHT30;59249;59.736;30.568;2022-07-23T10:27:36;30.59;48.81
71128;SHT30;59249;59.736;30.568;2022-07-23T10:30:14;30.68;49.47
71128;SHT30;59249;59.736;30.568;2022-07-23T10:32:56;30.76;49.10
71128;SHT30;59249;59.736;30.568;2022-07-23T10:35:38;30.70;48.80
71128;SHT30;59249;59.736;30.568;2022-07-23T10:38:13;30.76;48.80
71128;SHT30;59249;59.736;30.568;2022-07-23T10:40:55;30.66;48.43
71128;SHT30;59249;59.736;30.568;2022-07-23T10:43:26;30.74;48.61
71128;SHT30;59249;59.736;30.568;2022-07-23T10:46:36;30.72;48.44
71128;SHT30;59249;59.736;30.568;2022-07-23T10:49:24;30.64;48.00
71128;SHT30;59249;59.736;30.568;2022-07-23T10:52:22;30.72;48.66
71128;SHT30;59249;59.736;30.568;2022-07-23T10:54:54;30.72;47.74
71128;SHT30;59249;59.736;30.568;2022-07-23T10:57:26;30.79;47.39
71128;SHT30;59249;59.736;30.568;2022-07-23T11:00:20;30.74;47.12
71128;SHT30;59249;59.736;30.568;2022-07-23T11:02:54;30.72;47.19
71128;SHT30;59249;59.736;30.568;2022-07-23T11:05:26;30.83;47.10
71128;SHT30;59249;59.736;30.568;2022-07-23T11:08:16;30.92;46.43
71128;SHT30;59249;59.736;30.568;2022-07-23T11:10:54;31.01;46.94
71128;SHT30;59249;59.736;30.568;2022-07-23T11:13:48;30.95;46.33
71128;SHT30;59249;59.736;30.568;2022-07-23T11:16:25;31.12;46.12
71128;SHT30;59249;59.736;30.568;2022-07-23T11:19:06;31.21;46.30
71128;SHT30;59249;59.736;30.568;2022-07-23T11:21:56;31.13;46.95
71128;SHT30;59249;59.736;30.568;2022-07-23T11:24:26;31.08;46.78
71128;SHT30;59249;59.736;30.568;2022-07-23T11:27:01;31.16;47.20
71128;SHT30;59249;59.736;30.568;2022-07-23T11:29:48;31.26;45.80
71128;SHT30;59249;59.736;30.568;2022-07-23T11:32:38;31.45;46.08
71128;SHT30;59249;59.736;30.568;2022-07-23T11:35:25;31.40;45.54
71128;SHT30;59249;59.736;30.568;2022-07-23T11:38:04;31.40;45.37
71128;SHT30;59249;59.736;30.568;2022-07-23T11:40:35;31.42;45.74
71128;SHT30;59249;59.736;30.568;2022-07-23T11:43:07;31.46;44.87
71128;SHT30;59249;59.736;30.568;2022-07-23T11:45:38;31.60;44.99
71128;SHT30;59249;59.736;30.568;2022-07-23T11:48:16;31.70;45.30
71128;SHT30;59249;59.736;30.568;2022-07-23T11:50:47;31.78;45.33
71128;SHT30;59249;59.736;30.568;2022-07-23T11:53:26;31.89;44.31
71128;SHT30;59249;59.736;30.568;2022-07-23T11:56:04;31.97;45.13
71128;SHT30;59249;59.736;30.568;2022-07-23T11:58:33;31.95;45.43
71128;SHT30;59249;59.736;30.568;2022-07-23T12:01:03;32.06;44.86
71128;SHT30;59249;59.736;30.568;2022-07-23T12:03:32;31.99;44.41
71128;SHT30;59249;59.736;30.568;2022-07-23T12:06:04;31.86;44.53
71128;SHT30;59249;59.736;30.568;2022-07-23T12:08:33;31.91;45.16
71128;SHT30;59249;59.736;30.568;2022-07-23T12:11:12;31.84;45.08
71128;SHT30;59249;59.736;30.568;2022-07-23T12:13:41;31.73;44.96
71128;SHT30;59249;59.736;30.568;2022-07-23T12:16:10;31.25;46.04
71128;SHT30;59249;59.736;30.568;2022-07-23T12:18:39;30.75;46.94
71128;SHT30;59249;59.736;30.568;2022-07-23T12:21:09;30.39;47.36
71128;SHT30;59249;59.736;30.568;2022-07-23T12:23:38;29.91;48.96
71128;SHT30;59249;59.736;30.568;2022-07-23T12:26:08;29.26;50.49
71128;SHT30;59249;59.736;30.568;2022-07-23T12:28:38;28.91;51.83
71128;SHT30;59249;59.736;30.568;2022-07-23T12:31:09;28.84;52.57
71128;SHT30;59249;59.736;30.568;2022-07-23T12:33:40;27.97;55.42
71128;SHT30;59249;59.736;30.568;2022-07-23T12:36:10;27.75;56.52
71128;SHT30;59249;59.736;30.568;2022-07-23T12:38:42;27.37;58.28
71128;SHT30;59249;59.736;30.568;2022-07-23T12:41:11;26.75;60.26
71128;SHT30;59249;59.736;30.568;2022-07-23T12:43:43;26.51;60.83
71128;SHT30;59249;59.736;30.568;2022-07-23T12:46:16;26.38;61.85
71128;SHT30;59249;59.736;30.568;2022-07-23T12:48:52;26.37;61.89
71128;SHT30;59249;59.736;30.568;2022-07-23T12:51:25;26.51;61.32
71128;SHT30;59249;59.736;30.568;2022-07-23T12:53:56;26.55;61.56
71128;SHT30;59249;59.736;30.568;2022-07-23T12:56:30;26.59;61.47
71128;SHT30;59249;59.736;30.568;2022-07-23T12:59:07;26.60;61.28
71128;SHT30;59249;59.736;30.568;2022-07-23T13:01:39;26.64;61.12
71128;SHT30;59249;59.736;30.568;2022-07-23T13:04:13;26.76;60.77
71128;SHT30;59249;59.736;30.568;2022-07-23T13:06:48;26.76;60.73
71128;SHT30;59249;59.736;30.568;2022-07-23T13:09:20;26.78;61.11
71128;SHT30;59249;59.736;30.568;2022-07-23T13:11:54;26.72;61.84
71128;SHT30;59249;59.736;30.568;2022-07-23T13:14:25;26.65;62.42
71128;SHT30;59249;59.736;30.568;2022-07-23T13:16:55;26.47;63.13
71128;SHT30;59249;59.736;30.568;2022-07-23T13:19:26;26.29;64.36
71128;SHT30;59249;59.736;30.568;2022-07-23T13:21:59;26.17;64.46
71128;SHT30;59249;59.736;30.568;2022-07-23T13:24:35;26.04;65.47
71128;SHT30;59249;59.736;30.568;2022-07-23T13:27:06;25.88;66.52
71128;SHT30;59249;59.736;30.568;2022-07-23T13:29:38;25.67;67.52
71128;SHT30;59249;59.736;30.568;2022-07-23T13:32:06;25.48;69.56
71128;SHT30;59249;59.736;30.568;2022-07-23T13:34:40;25.16;72.62
71128;SHT30;59249;59.736;30.568;2022-07-23T13:37:11;24.86;74.67
71128;SHT30;59249;59.736;30.568;2022-07-23T13:39:40;24.57;76.17
71128;SHT30;59249;59.736;30.568;2022-07-23T13:42:12;24.24;76.14
71128;SHT30;59249;59.736;30.568;2022-07-23T13:44:44;23.86;74.45
71128;SHT30;59249;59.736;30.568;2022-07-23T13:47:15;23.73;74.86
71128;SHT30;59249;59.736;30.568;2022-07-23T13:49:45;23.68;75.23
71128;SHT30;59249;59.736;30.568;2022-07-23T13:52:16;23.55;75.98
71128;SHT30;59249;59.736;30.568;2022-07-23T13:54:46;23.52;76.16
71128;SHT30;59249;59.736;30.568;2022-07-23T13:57:16;23.45;76.32
71128;SHT30;59249;59.736;30.568;2022-07-23T13:59:45;23.46;76.38
71128;SHT30;59249;59.736;30.568;2022-07-23T14:02:16;23.41;76.71
71128;SHT30;59249;59.736;30.568;2022-07-23T14:04:49;23.41;76.86
71128;SHT30;59249;59.736;30.568;2022-07-23T14:07:19;23.45;77.15
71128;SHT30;59249;59.736;30.568;2022-07-23T14:09:49;23.53;76.93
71128;SHT30;59249;59.736;30.568;2022-07-23T14:12:18;23.43;76.60
71128;SHT30;59249;59.736;30.568;2022-07-23T14:14:50;23.41;76.37
71128;SHT30;59249;59.736;30.568;2022-07-23T14:17:20;23.34;76.74
71128;SHT30;59249;59.736;30.568;2022-07-23T14:19:52;23.25;77.35
71128;SHT30;59249;59.736;30.568;2022-07-23T14:22:23;23.15;77.98
71128;SHT30;59249;59.736;30.568;2022-07-23T14:24:52;23.27;77.69
71128;SHT30;59249;59.736;30.568;2022-07-23T14:27:21;23.33;77.55
71128;SHT30;59249;59.736;30.568;2022-07-23T14:29:50;23.48;77.17
71128;SHT30;59249;59.736;30.568;2022-07-23T14:32:19;23.59;77.20
71128;SHT30;59249;59.736;30.568;2022-07-23T14:34:49;23.64;77.34
71128;SHT30;59249;59.736;30.568;2022-07-23T14:37:19;23.69;77.08
71128;SHT30;59249;59.736;30.568;2022-07-23T14:39:49;23.74;77.01
71128;SHT30;59249;59.736;30.568;2022-07-23T14:42:18;23.70;78.10
71128;SHT30;59249;59.736;30.568;2022-07-23T14:44:48;23.71;78.50
71128;SHT30;59249;59.736;30.568;2022-07-23T14:47:17;23.73;78.57
71128;SHT30;59249;59.736;30.568;2022-07-23T14:49:48;23.77;77.09
71128;SHT30;59249;59.736;30.568;2022-07-23T14:52:18;23.69;76.34
71128;SHT30;59249;59.736;30.568;2022-07-23T14:54:49;23.60;76.87
71128;SHT30;59249;59.736;30.568;2022-07-23T14:57:18;23.53;76.82
71128;SHT30;59249;59.736;30.568;2022-07-23T14:59:53;23.50;76.67
71128;SHT30;59249;59.736;30.568;2022-07-23T15:02:22;23.41;76.32
71128;SHT30;59249;59.736;30.568;2022-07-23T15:04:52;23.32;76.92
71128;SHT30;59249;59.736;30.568;2022-07-23T15:07:22;23.31;77.66
71128;SHT30;59249;59.736;30.568;2022-07-23T15:09:54;23.36;77.16
71128;SHT30;59249;59.736;30.568;2022-07-23T15:12:24;23.50;77.44
71128;SHT30;59249;59.736;30.568;2022-07-23T15:14:53;23.62;77.41
71128;SHT30;59249;59.736;30.568;2022-07-23T15:17:22;23.64;77.68
71128;SHT30;59249;59.736;30.568;2022-07-23T15:19:53;23.74;77.50
71128;SHT30;59249;59.736;30.568;2022-07-23T15:22:23;23.87;76.50
71128;SHT30;59249;59.736;30.568;2022-07-23T15:24:53;24.02;76.57
71128;SHT30;59249;59.736;30.568;2022-07-23T15:27:24;24.10;76.45
71128;SHT30;59249;59.736;30.568;2022-07-23T15:29:53;24.17;75.91
71128;SHT30;59249;59.736;30.568;2022-07-23T15:32:22;24.21;76.18
71128;SHT30;59249;59.736;30.568;2022-07-23T15:34:55;24.14;76.43
71128;SHT30;59249;59.736;30.568;2022-07-23T15:37:24;24.16;76.49
71128;SHT30;59249;59.736;30.568;2022-07-23T15:39:55;24.06;76.60
71128;SHT30;59249;59.736;30.568;2022-07-23T15:42:23;23.94;76.68
71128;SHT30;59249;59.736;30.568;2022-07-23T15:44:55;23.70;76.98
71128;SHT30;59249;59.736;30.568;2022-07-23T15:47:24;23.64;76.98